Wednesday, October 17, 2018, 3:28 AM EDT
Back to Local

KRDG, Reading Regional Airport

Location: Reading, PA, United States Lat: 40.367
Local Time: 3:28 AM EDT ( 7:28 GMT) Lon: -75.967
Time Zone: US/Eastern Elev: 344 ft

Show me the last for .
Show Decoded

2018-10-17 02:54 METAR KRDG 170654Z AUTO 00000KT 10SM CLR 07/06 A3003 RMK AO2 SLP176 T00670056 =
2018-10-17 01:54 METAR KRDG 170554Z AUTO 00000KT 10SM CLR 06/06 A3005 RMK AO2 SLP183 T00610061
                 10094 20061 58006 =
2018-10-16 23:54 METAR KRDG 170354Z AUTO 00000KT 10SM CLR 08/06 A3007 RMK AO2 SLP189 T00780056 =
2018-10-16 22:54 METAR KRDG 170254Z 00000KT 10SM CLR 08/06 A3007 RMK AO2 SLP189 T00780061 55002 =
2018-10-16 21:54 METAR KRDG 170154Z 00000KT 10SM CLR 08/06 A3006 RMK AO2 SLP187 T00830061 =
2018-10-16 20:54 METAR KRDG 170054Z 00000KT 10SM CLR 09/05 A3007 RMK AO2 SLP189 T00890050 =
2018-10-16 19:54 METAR KRDG 162354Z 00000KT 10SM CLR 09/06 A3008 RMK AO2 SLP192 T00890056 10128
                 20089 56001 =
2018-10-16 18:54 METAR KRDG 162254Z 23003KT 10SM CLR 10/04 A3008 RMK AO2 SLP192 T01000039 =
2018-10-16 17:54 METAR KRDG 162154Z 25004KT 10SM CLR 11/04 A3008 RMK AO2 SLP192 T01110039 =
2018-10-16 16:54 METAR KRDG 162054Z 24007KT 10SM CLR 12/03 A3008 RMK AO2 SLP192 T01220028 56015 =
2018-10-16 15:54 METAR KRDG 161954Z AUTO 27008KT 10SM CLR 12/03 A3008 RMK AO2 SLP192 T01220028 =
2018-10-16 14:54 METAR KRDG 161854Z 23010KT 10SM CLR 12/03 A3010 RMK AO2 SLP197 T01220028 =
2018-10-16 13:54 METAR KRDG 161754Z 26010KT 240V320 10SM CLR 13/02 A3013 RMK AO2 SLP207 T01280022
                 10128 20083 58022 =
2018-10-16 12:54 METAR KRDG 161654Z 29010KT 10SM CLR 11/02 A3016 RMK AO2 SLP217 T01110022 =
2018-10-16 11:54 METAR KRDG 161554Z 29010KT 10SM CLR 11/02 A3018 RMK AO2 SLP224 T01110017 =
2018-10-16 10:54 METAR KRDG 161454Z 33011KT 10SM CLR 10/02 A3019 RMK AO2 SLP229 T01000017 50004 =
2018-10-16 09:54 METAR KRDG 161354Z 32011KT 10SM CLR 09/03 A3021 RMK AO2 SLP234 T00940028 =
2018-10-16 08:54 METAR KRDG 161254Z 33008KT 10SM CLR 09/02 A3021 RMK AO2 SLP234 T00890022 =
2018-10-16 07:54 METAR KRDG 161154Z 33008KT 10SM CLR 08/02 A3018 RMK AO2 SLP225 70008 T00830022
                 10128 20078 51023 =
2018-10-16 06:54 METAR KRDG 161054Z 32013G21KT 10SM CLR 09/02 A3016 RMK AO2 SLP218 T00890022 =
2018-10-16 05:54 METAR KRDG 160954Z AUTO 33014KT 10SM CLR 10/03 A3015 RMK AO2 SLP213 T01000028 =
2018-10-16 04:54 METAR KRDG 160854Z AUTO 31008KT 10SM CLR 10/06 A3011 RMK AO2 SLP201 T01000061
                 53017 =
2018-10-16 03:54 METAR KRDG 160754Z AUTO 29011KT 10SM CLR 12/06 A3009 RMK AO2 SLP193 T01170061 =

Support USWX by starting your Amazon purchase here.